Time;durP1;ratioP1;P1;durP2;ratioP2;P2;SDS_P1;SDS_P2;PMS_P1;PMS_P2;Temp;Humidity;BMP_temperature;BMP_pressure;BME280_temperature;BME280_humidity;BME280_pressure;Samples;Min_cycle;Max_cycle;Signal;HPM_P1;HPM_P2
2022/07/15 00:01:46;;;;;;;10.57;3.28;;;16.00;99.90;;;;;;5115762;28;20153;-69
2022/07/15 00:04:12;;;;;;;5.47;2.88;;;15.90;99.90;;;;;;5115527;28;20255;-69
2022/07/15 00:06:38;;;;;;;5.00;2.70;;;15.90;99.90;;;;;;5113739;28;20183;-69
2022/07/15 00:09:04;;;;;;;3.63;2.70;;;15.90;99.90;;;;;;5114870;28;20180;-69
2022/07/15 00:11:29;;;;;;;4.15;2.55;;;15.90;99.90;;;;;;5114726;28;20204;-69
2022/07/15 00:13:55;;;;;;;6.80;3.00;;;15.80;99.90;;;;;;5114544;28;20168;-68
2022/07/15 00:16:21;;;;;;;4.65;3.08;;;15.80;99.90;;;;;;5114842;28;20548;-69
2022/07/15 00:18:47;;;;;;;3.38;2.40;;;15.70;99.90;;;;;;5114721;28;20206;-69
2022/07/15 00:21:12;;;;;;;6.07;2.85;;;15.70;99.90;;;;;;5114635;28;20196;-68
2022/07/15 00:23:38;;;;;;;5.88;2.72;;;15.70;99.90;;;;;;5114970;28;20176;-69
2022/07/15 00:26:04;;;;;;;7.13;3.22;;;15.70;99.90;;;;;;5115017;28;20176;-68
2022/07/15 00:28:30;;;;;;;3.78;2.95;;;15.70;99.90;;;;;;5114813;28;20181;-69
2022/07/15 00:30:56;;;;;;;4.13;2.80;;;15.80;99.90;;;;;;5114241;28;20200;-69
2022/07/15 00:33:22;;;;;;;5.10;2.85;;;15.80;99.90;;;;;;5114550;28;20543;-68
2022/07/15 00:35:48;;;;;;;6.82;3.00;;;15.80;99.90;;;;;;5114341;28;20251;-69
2022/07/15 00:38:14;;;;;;;3.30;2.60;;;15.90;99.90;;;;;;5114416;28;20641;-69
2022/07/15 00:40:47;;;;;;;6.82;3.03;;;15.90;99.90;;;;;;5114621;28;20252;-69
2022/07/15 00:43:16;;;;;;;5.78;2.78;;;16.00;99.90;;;;;;5114943;28;20164;-69
2022/07/15 00:45:42;;;;;;;4.65;2.88;;;16.00;99.90;;;;;;5114153;28;20224;-69
2022/07/15 00:48:08;;;;;;;4.97;3.15;;;16.00;99.90;;;;;;5114019;28;20251;-69
2022/07/15 00:50:34;;;;;;;6.40;2.88;;;16.00;99.90;;;;;;5114020;28;20287;-69
2022/07/15 00:53:31;;;;;;;7.00;2.78;;;16.00;99.90;;;;;;5114329;28;20529;-69
2022/07/15 00:55:59;;;;;;;9.13;3.58;;;15.90;99.90;;;;;;5111844;28;20195;-68
2022/07/15 00:58:26;;;;;;;6.43;3.20;;;15.90;99.90;;;;;;5114029;28;20175;-69
2022/07/15 01:00:54;;;;;;;4.85;3.20;;;15.90;99.90;;;;;;5113739;28;20200;-69
2022/07/15 01:03:20;;;;;;;7.95;2.83;;;15.90;99.90;;;;;;5113981;28;20172;-69
2022/07/15 01:05:47;;;;;;;7.45;3.17;;;15.90;99.90;;;;;;5114063;28;20189;-69
2022/07/15 01:08:14;;;;;;;7.25;3.20;;;15.90;99.90;;;;;;5114398;28;20173;-69
2022/07/15 01:10:41;;;;;;;4.95;3.00;;;15.90;99.90;;;;;;5113909;28;20340;-69
2022/07/15 01:13:07;;;;;;;3.63;2.75;;;15.90;99.90;;;;;;5114040;28;20179;-69
2022/07/15 01:15:33;;;;;;;7.85;3.38;;;15.90;99.90;;;;;;5112671;28;20172;-69
2022/07/15 01:18:02;;;;;;;6.20;3.40;;;15.90;99.90;;;;;;5113840;28;20184;-70
2022/07/15 01:20:28;;;;;;;9.43;3.20;;;15.90;99.90;;;;;;5113779;28;20616;-70
2022/07/15 01:22:54;;;;;;;6.07;3.10;;;15.90;99.90;;;;;;5114060;28;20168;-69
2022/07/15 01:25:20;;;;;;;6.63;3.60;;;15.90;99.90;;;;;;5114153;28;20229;-69
2022/07/15 01:27:45;;;;;;;4.20;3.05;;;15.80;99.90;;;;;;5114242;28;20161;-70
2022/07/15 01:30:11;;;;;;;7.72;3.40;;;15.80;99.90;;;;;;5113823;28;20665;-69
2022/07/15 01:32:37;;;;;;;9.20;3.97;;;15.70;99.90;;;;;;5113762;28;20176;-69
2022/07/15 01:35:03;;;;;;;4.63;3.38;;;15.70;99.90;;;;;;5113882;28;20209;-69
2022/07/15 01:37:29;;;;;;;7.35;3.50;;;15.60;99.90;;;;;;5113890;28;20165;-69
2022/07/15 01:39:55;;;;;;;8.48;3.30;;;15.60;99.90;;;;;;5114344;28;20278;-69
2022/07/15 01:42:21;;;;;;;4.55;3.20;;;15.50;99.90;;;;;;5114070;28;20176;-69
2022/07/15 01:44:47;;;;;;;10.15;3.42;;;15.50;99.90;;;;;;5113559;28;20165;-70
2022/07/15 01:47:13;;;;;;;6.00;3.42;;;15.50;99.90;;;;;;5114205;28;20164;-69
2022/07/15 01:49:38;;;;;;;7.55;3.15;;;15.40;99.90;;;;;;5113682;28;20688;-69
2022/07/15 01:52:05;;;;;;;8.00;3.17;;;15.40;99.90;;;;;;5114159;28;20301;-69
2022/07/15 01:54:32;;;;;;;7.20;3.50;;;15.30;99.90;;;;;;5113748;28;20176;-69
2022/07/15 01:56:58;;;;;;;8.20;3.33;;;15.30;99.90;;;;;;5112638;28;20641;-70
2022/07/15 01:59:23;;;;;;;12.05;3.63;;;15.30;99.90;;;;;;5113367;28;20659;-69
2022/07/15 02:01:54;;;;;;;5.85;3.35;;;15.20;99.90;;;;;;5116997;28;20176;-69
2022/07/15 02:04:21;;;;;;;5.00;2.70;;;15.20;99.90;;;;;;5117583;28;20609;-69
2022/07/15 02:06:47;;;;;;;7.25;3.20;;;15.20;99.90;;;;;;5117367;28;20157;-69
2022/07/15 02:09:13;;;;;;;10.13;3.45;;;15.20;99.90;;;;;;5117566;28;20176;-69
2022/07/15 02:11:39;;;;;;;7.65;3.08;;;15.10;99.90;;;;;;5117419;28;20279;-69
2022/07/15 02:14:05;;;;;;;8.38;3.17;;;15.00;99.90;;;;;;5117721;28;20179;-69
2022/07/15 02:16:32;;;;;;;8.23;3.60;;;15.10;99.90;;;;;;5117034;28;20168;-69
2022/07/15 02:18:58;;;;;;;10.32;3.40;;;15.00;99.90;;;;;;5117243;28;20248;-69
2022/07/15 02:21:26;;;;;;;7.93;2.97;;;15.00;99.90;;;;;;5117148;28;20748;-70
2022/07/15 02:23:53;;;;;;;10.13;3.20;;;15.00;99.90;;;;;;5117613;28;20181;-69
2022/07/15 02:26:19;;;;;;;7.15;3.38;;;15.00;99.90;;;;;;5115814;28;20557;-69
2022/07/15 02:28:45;;;;;;;11.10;3.35;;;14.90;99.90;;;;;;5117345;28;20537;-69
2022/07/15 02:31:11;;;;;;;7.03;3.50;;;15.00;99.90;;;;;;5116648;28;20200;-69
2022/07/15 02:33:38;;;;;;;7.97;3.42;;;15.00;99.90;;;;;;5116935;28;20171;-69
2022/07/15 02:36:04;;;;;;;7.80;3.10;;;14.90;99.90;;;;;;5117768;28;20694;-69
2022/07/15 02:38:29;;;;;;;4.68;3.08;;;14.90;99.90;;;;;;5117012;28;20160;-70
2022/07/15 02:40:55;;;;;;;7.03;3.13;;;14.90;99.90;;;;;;5116758;28;20223;-69
2022/07/15 02:43:21;;;;;;;8.35;3.28;;;15.00;99.90;;;;;;5118318;28;20544;-69
2022/07/15 02:45:47;;;;;;;9.40;3.50;;;15.00;99.90;;;;;;5117730;28;20173;-69
2022/07/15 02:48:15;;;;;;;9.25;3.97;;;15.10;99.90;;;;;;5118345;28;20250;-69
2022/07/15 02:50:41;;;;;;;6.97;3.55;;;15.00;99.90;;;;;;5118172;28;20206;-69
2022/07/15 02:53:07;;;;;;;14.55;3.72;;;15.10;99.90;;;;;;5117033;28;20200;-69
2022/07/15 02:55:33;;;;;;;9.43;3.53;;;15.10;99.90;;;;;;5116595;28;20200;-72
2022/07/15 02:57:59;;;;;;;7.32;3.35;;;15.00;99.90;;;;;;5116996;28;20175;-69
2022/07/15 03:00:25;;;;;;;7.35;3.50;;;15.00;99.90;;;;;;5116413;28;20252;-69
2022/07/15 03:02:52;;;;;;;9.95;3.40;;;15.00;99.90;;;;;;5116484;28;20207;-69
2022/07/15 03:05:18;;;;;;;7.13;3.20;;;14.90;99.90;;;;;;5116629;28;20169;-69
2022/07/15 03:07:45;;;;;;;8.68;3.13;;;14.90;99.90;;;;;;5116251;28;20551;-69
2022/07/15 03:10:11;;;;;;;8.60;3.70;;;14.90;99.90;;;;;;5115999;28;20192;-69
2022/07/15 03:12:37;;;;;;;8.18;3.65;;;15.00;99.90;;;;;;5114815;28;20203;-69
2022/07/15 03:15:04;;;;;;;12.80;4.03;;;14.90;99.90;;;;;;5116401;28;20545;-69
2022/07/15 03:17:30;;;;;;;7.30;3.25;;;14.90;99.90;;;;;;5116094;28;20188;-69
2022/07/15 03:19:56;;;;;;;10.30;4.32;;;14.80;99.90;;;;;;5114626;28;20684;-69
2022/07/15 03:22:23;;;;;;;8.07;3.65;;;14.80;99.90;;;;;;5115935;28;20217;-68
2022/07/15 03:24:48;;;;;;;7.13;3.90;;;14.70;99.90;;;;;;5115764;28;20173;-69
2022/07/15 03:27:15;;;;;;;9.00;3.80;;;14.70;99.90;;;;;;5115982;28;20255;-69
2022/07/15 03:29:42;;;;;;;6.85;4.05;;;14.70;99.90;;;;;;5115736;28;20199;-69
2022/07/15 03:32:08;;;;;;;9.25;3.85;;;14.60;99.90;;;;;;5116464;28;20194;-69
2022/07/15 03:34:34;;;;;;;8.77;3.63;;;14.60;99.90;;;;;;5115652;28;20618;-69
2022/07/15 03:37:00;;;;;;;12.02;3.95;;;14.50;99.90;;;;;;5115662;28;20176;-69
2022/07/15 03:39:26;;;;;;;8.88;4.10;;;14.50;99.90;;;;;;5115806;28;20169;-69
2022/07/15 03:41:51;;;;;;;7.68;3.80;;;14.40;99.90;;;;;;5115647;28;20169;-69
2022/07/15 03:44:17;;;;;;;13.57;4.20;;;14.40;99.90;;;;;;5115616;28;20181;-69
2022/07/15 03:46:46;;;;;;;9.05;4.18;;;14.40;99.90;;;;;;5114127;28;20172;-69
2022/07/15 03:49:13;;;;;;;11.02;3.80;;;14.30;99.90;;;;;;5114175;28;20184;-69
2022/07/15 03:51:39;;;;;;;9.27;3.92;;;14.30;99.90;;;;;;5115282;28;20198;-68
2022/07/15 03:54:05;;;;;;;10.57;4.30;;;14.30;99.90;;;;;;5115641;28;20176;-69
2022/07/15 03:56:31;;;;;;;9.27;4.00;;;14.40;99.90;;;;;;5116360;28;20167;-69
2022/07/15 03:58:57;;;;;;;8.70;3.88;;;14.40;99.90;;;;;;5116078;28;20194;-69
2022/07/15 04:01:23;;;;;;;7.57;3.90;;;14.40;99.90;;;;;;5115379;28;20196;-70
2022/07/15 04:03:50;;;;;;;10.55;3.90;;;14.30;99.90;;;;;;5115884;28;20184;-69
2022/07/15 04:06:16;;;;;;;11.40;4.50;;;14.30;99.90;;;;;;5114203;28;20182;-69
2022/07/15 04:08:43;;;;;;;6.38;3.65;;;14.20;99.90;;;;;;5113886;28;20176;-69
2022/07/15 04:11:10;;;;;;;7.85;3.97;;;14.20;99.90;;;;;;5115089;28;20196;-69
2022/07/15 04:13:36;;;;;;;9.60;3.58;;;14.20;99.90;;;;;;5114965;28;20298;-69
2022/07/15 04:16:03;;;;;;;11.75;3.85;;;14.20;99.90;;;;;;5115110;28;20304;-69
2022/07/15 04:18:28;;;;;;;11.88;4.18;;;14.00;99.90;;;;;;5114930;28;20263;-67
2022/07/15 04:20:54;;;;;;;9.05;4.18;;;14.00;99.90;;;;;;5114754;28;20276;-66
2022/07/15 04:23:20;;;;;;;10.40;3.90;;;14.10;99.90;;;;;;5114605;28;20179;-66
2022/07/15 04:25:46;;;;;;;9.10;3.80;;;14.10;99.90;;;;;;5113481;28;20649;-66
2022/07/15 04:28:12;;;;;;;9.50;3.45;;;14.10;99.90;;;;;;5115493;28;20210;-66
2022/07/15 04:30:38;;;;;;;8.80;3.80;;;14.00;99.90;;;;;;5114473;28;20192;-66
2022/07/15 04:33:03;;;;;;;7.50;3.92;;;14.00;99.90;;;;;;5114771;28;20602;-66
2022/07/15 04:35:29;;;;;;;5.15;3.65;;;14.10;99.90;;;;;;5114675;28;20247;-66
2022/07/15 04:37:55;;;;;;;8.70;3.80;;;14.10;99.90;;;;;;5114791;28;20686;-66
2022/07/15 04:40:21;;;;;;;7.95;3.85;;;14.20;99.90;;;;;;5113297;28;20204;-66
2022/07/15 04:42:46;;;;;;;9.20;4.10;;;14.30;99.90;;;;;;5114644;28;20251;-66
2022/07/15 04:45:12;;;;;;;13.40;3.70;;;14.30;99.90;;;;;;5114445;28;20172;-66
2022/07/15 04:47:38;;;;;;;7.68;4.30;;;14.30;99.90;;;;;;5113100;28;20292;-66
2022/07/15 04:52:49;;;;;;;10.27;4.28;;;14.40;99.90;;;;;;5114645;28;20164;-68
2022/07/15 04:55:15;;;;;;;9.02;4.00;;;14.40;99.90;;;;;;5114395;28;20644;-68
2022/07/15 04:57:41;;;;;;;6.32;3.45;;;14.40;99.90;;;;;;5114491;28;20163;-68
2022/07/15 05:00:09;;;;;;;12.05;4.07;;;14.50;99.90;;;;;;5112444;28;20199;-68
2022/07/15 05:02:35;;;;;;;9.07;3.78;;;14.60;99.90;;;;;;5114653;28;20250;-67
2022/07/15 05:05:01;;;;;;;5.75;3.55;;;14.60;99.90;;;;;;5112845;28;20595;-67
2022/07/15 05:07:27;;;;;;;8.15;3.97;;;14.60;99.90;;;;;;5114241;28;20179;-67
2022/07/15 05:09:52;;;;;;;13.82;4.50;;;14.60;99.90;;;;;;5112579;28;20200;-67
2022/07/15 05:12:18;;;;;;;13.13;4.68;;;14.60;99.90;;;;;;5112536;28;20203;-67
2022/07/15 05:14:44;;;;;;;8.95;4.68;;;14.60;99.90;;;;;;5114104;28;20188;-68
2022/07/15 05:17:10;;;;;;;10.60;3.72;;;14.50;99.90;;;;;;5112592;28;20644;-68
2022/07/15 05:19:36;;;;;;;8.18;4.43;;;14.50;99.90;;;;;;5112616;28;20549;-67
2022/07/15 05:22:02;;;;;;;7.72;4.20;;;14.50;99.90;;;;;;5114211;28;20183;-67
2022/07/15 05:24:29;;;;;;;7.88;3.92;;;14.60;99.90;;;;;;5114151;28;20204;-67
2022/07/15 05:26:54;;;;;;;10.30;4.07;;;14.50;99.90;;;;;;5113781;28;20164;-67
2022/07/15 05:29:21;;;;;;;10.27;4.05;;;14.50;99.90;;;;;;5113710;28;20180;-67
2022/07/15 05:31:48;;;;;;;10.60;4.22;;;14.60;99.90;;;;;;5113463;28;20184;-67
2022/07/15 05:34:14;;;;;;;10.75;4.10;;;14.60;99.90;;;;;;5114309;28;20162;-67
2022/07/15 05:36:40;;;;;;;7.22;3.80;;;14.70;99.90;;;;;;5117278;28;20252;-67
2022/07/15 05:39:06;;;;;;;8.70;4.07;;;14.80;99.90;;;;;;5117794;28;20218;-67
2022/07/15 05:41:32;;;;;;;7.03;3.65;;;14.90;99.90;;;;;;5117682;28;20192;-67
2022/07/15 05:43:58;;;;;;;8.85;3.95;;;15.10;99.90;;;;;;5116261;28;20625;-68
2022/07/15 05:46:24;;;;;;;11.13;4.13;;;15.20;99.90;;;;;;5116286;28;20172;-68
2022/07/15 05:48:50;;;;;;;5.65;3.60;;;15.20;99.90;;;;;;5117782;28;20183;-68
2022/07/15 05:51:16;;;;;;;10.02;3.72;;;15.30;99.90;;;;;;5117456;28;20521;-68
2022/07/15 05:53:42;;;;;;;7.65;3.38;;;15.20;99.90;;;;;;5117288;28;20195;-68
2022/07/15 05:56:08;;;;;;;7.05;2.80;;;15.30;99.90;;;;;;5117559;28;20172;-68
2022/07/15 05:58:34;;;;;;;8.88;3.35;;;15.40;99.90;;;;;;5117636;28;20176;-68
2022/07/15 06:01:00;;;;;;;8.73;3.38;;;15.40;99.90;;;;;;5117044;28;20219;-68
2022/07/15 06:03:25;;;;;;;8.32;2.70;;;15.50;99.90;;;;;;5117331;28;20551;-68
2022/07/15 06:05:51;;;;;;;6.72;2.75;;;15.60;99.90;;;;;;5117554;28;20173;-68
2022/07/15 06:08:17;;;;;;;9.38;2.85;;;15.70;99.90;;;;;;5117594;28;20171;-68
2022/07/15 06:10:43;;;;;;;6.03;2.30;;;15.80;99.90;;;;;;5115719;28;20204;-68
2022/07/15 06:13:08;;;;;;;10.27;2.78;;;15.70;99.90;;;;;;5117423;28;20160;-68
2022/07/15 06:15:34;;;;;;;7.57;2.75;;;15.70;99.90;;;;;;5117016;28;20213;-68
2022/07/15 06:18:00;;;;;;;4.68;2.10;;;15.80;99.90;;;;;;5115703;28;20665;-68
2022/07/15 06:20:26;;;;;;;5.72;2.60;;;15.80;99.90;;;;;;5116863;28;20248;-68
2022/07/15 06:22:52;;;;;;;8.63;2.30;;;15.90;99.90;;;;;;5116830;28;20172;-68
2022/07/15 06:25:17;;;;;;;5.85;2.55;;;15.90;99.90;;;;;;5116792;28;20179;-68
2022/07/15 06:27:43;;;;;;;12.90;2.95;;;15.90;99.90;;;;;;5117310;28;20536;-68
2022/07/15 06:30:09;;;;;;;9.63;2.88;;;15.90;99.90;;;;;;5116553;28;20312;-68
2022/07/15 06:32:36;;;;;;;6.95;2.65;;;15.90;99.90;;;;;;5116735;28;20173;-69
2022/07/15 06:35:02;;;;;;;10.05;2.72;;;15.80;99.90;;;;;;5115423;28;20176;-68
2022/07/15 06:37:27;;;;;;;3.63;2.50;;;15.70;99.90;;;;;;5116902;28;20176;-68
2022/07/15 06:39:54;;;;;;;9.30;2.80;;;15.90;99.90;;;;;;5116501;28;20189;-68
2022/07/15 06:42:21;;;;;;;9.07;2.88;;;16.00;99.90;;;;;;5115403;28;20180;-69
2022/07/15 06:44:47;;;;;;;7.43;2.78;;;15.90;99.90;;;;;;5117031;28;20578;-69
2022/07/15 06:47:13;;;;;;;7.82;2.60;;;16.00;99.90;;;;;;5115808;28;20168;-69
2022/07/15 06:49:39;;;;;;;5.82;2.33;;;16.10;99.90;;;;;;5115263;28;20208;-69
2022/07/15 06:52:04;;;;;;;11.48;2.40;;;16.20;99.90;;;;;;5116842;28;20287;-68
2022/07/15 06:54:30;;;;;;;4.65;2.20;;;16.20;99.90;;;;;;5116466;28;20576;-68
2022/07/15 06:56:57;;;;;;;4.45;2.38;;;16.40;99.90;;;;;;5116156;28;20168;-69
2022/07/15 06:59:23;;;;;;;5.10;2.00;;;16.50;99.90;;;;;;5116246;28;20201;-68
2022/07/15 07:01:49;;;;;;;8.27;2.47;;;16.60;99.90;;;;;;5114550;28;20176;-69
2022/07/15 07:04:15;;;;;;;6.93;2.58;;;16.70;99.90;;;;;;5116296;28;20709;-68
2022/07/15 07:06:41;;;;;;;5.07;2.38;;;16.60;99.90;;;;;;5116786;28;20199;-68
2022/07/15 07:09:08;;;;;;;7.07;1.90;;;16.60;99.90;;;;;;5116398;27;20176;-68
2022/07/15 07:11:34;;;;;;;4.38;2.10;;;16.70;99.90;;;;;;5115977;28;20199;-69
2022/07/15 07:14:00;;;;;;;3.85;2.00;;;16.90;99.90;;;;;;5116379;27;20153;-69
2022/07/15 07:16:26;;;;;;;5.95;2.20;;;17.00;99.90;;;;;;5115807;28;20169;-69
2022/07/15 07:18:52;;;;;;;5.40;2.20;;;17.20;99.90;;;;;;5115773;28;20641;-69
2022/07/15 07:21:19;;;;;;;7.03;2.25;;;17.20;99.90;;;;;;5114556;28;20196;-69
2022/07/15 07:23:45;;;;;;;6.70;3.10;;;16.90;99.90;;;;;;5114684;28;20172;-69
2022/07/15 07:26:15;;;;;;;3.47;2.22;;;16.80;99.90;;;;;;5116011;28;20181;-68
2022/07/15 07:28:41;;;;;;;4.95;1.90;;;16.70;99.90;;;;;;5114410;28;20659;-68
2022/07/15 07:31:08;;;;;;;7.45;2.03;;;16.70;99.90;;;;;;5115352;28;20200;-69
2022/07/15 07:33:34;;;;;;;9.80;2.15;;;16.80;99.90;;;;;;5115623;28;20172;-68
2022/07/15 07:36:00;;;;;;;5.85;2.15;;;17.00;99.90;;;;;;5115530;28;20173;-69
2022/07/15 07:38:26;;;;;;;2.92;2.00;;;17.00;99.90;;;;;;5114176;28;20211;-69
2022/07/15 07:40:52;;;;;;;7.78;2.47;;;17.10;99.90;;;;;;5115311;28;20196;-69
2022/07/15 07:43:19;;;;;;;4.70;2.13;;;17.30;99.90;;;;;;5115637;27;20195;-69
2022/07/15 07:45:46;;;;;;;5.05;1.73;;;17.40;99.90;;;;;;5115150;28;20177;-69
2022/07/15 07:48:11;;;;;;;5.50;1.77;;;17.60;99.90;;;;;;5115368;28;20172;-69
2022/07/15 07:50:39;;;;;;;2.72;1.80;;;17.70;99.90;;;;;;5115068;28;20204;-69
2022/07/15 07:53:05;;;;;;;3.47;1.88;;;17.90;99.90;;;;;;5115191;28;20176;-69
2022/07/15 07:55:31;;;;;;;5.97;1.83;;;17.90;99.90;;;;;;5115158;28;20573;-69
2022/07/15 07:57:58;;;;;;;5.55;2.45;;;18.00;99.90;;;;;;5112991;28;20229;-69
2022/07/15 08:00:26;;;;;;;4.00;1.60;;;18.10;99.90;;;;;;5114766;28;20237;-69
2022/07/15 08:02:53;;;;;;;9.15;2.33;;;18.20;99.90;;;;;;5115015;28;20164;-69
2022/07/15 08:05:20;;;;;;;6.47;2.20;;;18.30;99.90;;;;;;5115332;28;20160;-69
2022/07/15 08:07:46;;;;;;;4.78;1.98;;;18.40;99.90;;;;;;5115409;28;20168;-69
2022/07/15 08:10:12;;;;;;;7.35;2.25;;;18.50;99.90;;;;;;5114733;28;20200;-69
2022/07/15 08:12:38;;;;;;;9.88;2.47;;;18.30;99.90;;;;;;5115024;28;20221;-69
2022/07/15 08:15:07;;;;;;;3.08;1.83;;;18.20;99.90;;;;;;5113442;28;20176;-69
2022/07/15 08:17:32;;;;;;;6.38;2.38;;;18.10;99.90;;;;;;5114434;28;20184;-69
2022/07/15 08:19:58;;;;;;;7.45;2.03;;;17.70;99.90;;;;;;5113345;28;20292;-69
2022/07/15 08:22:24;;;;;;;6.10;2.10;;;17.60;99.90;;;;;;5115143;28;20176;-69
2022/07/15 08:24:50;;;;;;;3.53;2.10;;;17.60;99.90;;;;;;5113293;28;20317;-69
2022/07/15 08:27:17;;;;;;;5.25;1.92;;;17.50;99.90;;;;;;5114847;28;20176;-69
2022/07/15 08:29:43;;;;;;;3.90;2.05;;;17.50;99.90;;;;;;5114781;28;20184;-69
2022/07/15 08:32:10;;;;;;;2.65;2.00;;;17.50;99.90;;;;;;5114190;28;20270;-69
2022/07/15 08:34:36;;;;;;;4.70;2.05;;;17.40;99.90;;;;;;5114596;28;20251;-69
2022/07/15 08:37:02;;;;;;;4.95;2.08;;;17.50;99.90;;;;;;5113120;28;20622;-69
2022/07/15 08:39:28;;;;;;;7.53;2.22;;;17.50;99.90;;;;;;5113056;28;20179;-69
2022/07/15 08:41:54;;;;;;;6.85;2.10;;;17.60;99.90;;;;;;5114366;28;20173;-69
2022/07/15 08:44:20;;;;;;;5.90;2.28;;;17.80;99.90;;;;;;5114311;28;20547;-69
2022/07/15 08:46:47;;;;;;;9.32;2.28;;;18.00;99.90;;;;;;5113988;28;20184;-69
2022/07/15 08:49:18;;;;;;;5.65;1.75;;;18.20;99.90;;;;;;5112966;28;20211;-69
2022/07/15 08:51:47;;;;;;;3.85;1.70;;;18.30;99.90;;;;;;5114201;28;20184;-69
2022/07/15 08:54:14;;;;;;;4.95;2.10;;;18.30;99.90;;;;;;5114258;28;20591;-69
2022/07/15 08:56:42;;;;;;;3.92;2.00;;;18.10;99.90;;;;;;5114483;28;20538;-69
2022/07/15 08:59:08;;;;;;;6.07;2.20;;;17.80;99.90;;;;;;5112775;28;20200;-69
2022/07/15 09:01:42;;;;;;;7.35;2.03;;;17.70;99.90;;;;;;5113812;28;20216;-69
2022/07/15 09:04:08;;;;;;;5.97;1.98;;;17.70;99.90;;;;;;5114397;28;20522;-69
2022/07/15 09:06:36;;;;;;;6.50;2.35;;;17.60;99.90;;;;;;5114086;28;20182;-69
2022/07/15 09:09:26;;;;;;;4.70;2.10;;;17.50;99.90;;;;;;5114189;28;20173;-69
2022/07/15 09:12:13;;;;;;;7.93;2.17;;;17.50;99.90;;;;;;5114094;28;20196;-69
2022/07/15 09:14:44;;;;;;;7.50;2.25;;;17.60;99.90;;;;;;5114103;28;20181;-69
2022/07/15 09:17:10;;;;;;;7.57;2.72;;;17.50;99.90;;;;;;5113591;28;20144;-69
2022/07/15 09:19:58;;;;;;;5.85;2.30;;;17.60;99.90;;;;;;5113794;28;20195;-69
2022/07/15 09:22:26;;;;;;;4.75;2.00;;;17.50;99.90;;;;;;5112574;28;20192;-69
2022/07/15 09:25:21;;;;;;;4.22;2.17;;;17.60;99.90;;;;;;5112600;28;20207;-69
2022/07/15 09:27:47;;;;;;;8.05;2.20;;;17.60;99.90;;;;;;5104852;28;20317;-69
2022/07/15 09:33:49;;;;;;;3.45;2.08;;;17.80;99.90;;;;;;5114238;28;20163;-69
2022/07/15 09:36:14;;;;;;;4.22;1.75;;;18.40;99.90;;;;;;5114182;28;20145;-70
2022/07/15 09:38:40;;;;;;;7.10;2.05;;;19.10;99.90;;;;;;5113594;28;20172;-69
2022/07/15 09:41:12;;;;;;;4.32;1.92;;;19.60;99.90;;;;;;5113814;28;20188;-69
2022/07/15 09:43:50;;;;;;;5.30;2.08;;;19.80;99.90;;;;;;5112302;28;20165;-69
2022/07/15 09:46:17;;;;;;;5.10;1.88;;;19.80;99.90;;;;;;5112044;28;20226;-69
2022/07/15 09:48:45;;;;;;;5.10;1.80;;;19.70;99.90;;;;;;5113486;28;20184;-69
2022/07/15 09:51:11;;;;;;;4.13;1.80;;;19.70;99.90;;;;;;5112104;28;20207;-69
2022/07/15 09:53:40;;;;;;;6.53;1.90;;;19.80;99.90;;;;;;5113739;28;20168;-69
2022/07/15 09:56:16;;;;;;;9.98;2.13;;;19.50;99.90;;;;;;5113392;28;20255;-69
2022/07/15 09:58:43;;;;;;;5.45;2.15;;;19.10;99.90;;;;;;5114050;28;20148;-69
2022/07/15 10:01:11;;;;;;;7.20;2.25;;;18.80;99.90;;;;;;5113089;28;20188;-69
2022/07/15 10:03:37;;;;;;;4.43;2.03;;;18.60;99.90;;;;;;5113493;28;20212;-69
2022/07/15 10:06:04;;;;;;;5.53;2.10;;;18.90;99.90;;;;;;5113367;28;20173;-69
2022/07/15 10:08:31;;;;;;;7.20;2.13;;;19.30;99.90;;;;;;5112082;28;20180;-69
2022/07/15 10:10:58;;;;;;;9.82;2.83;;;19.70;99.90;;;;;;5113467;28;20668;-69
2022/07/15 10:13:59;;;;;;;4.60;1.65;;;19.90;99.90;;;;;;5113316;28;20172;-69
2022/07/15 10:16:53;;;;;;;2.42;1.70;;;20.40;99.90;;;;;;5111395;28;20179;-69
2022/07/15 10:19:42;;;;;;;5.53;1.90;;;20.50;99.90;;;;;;5111820;28;20242;-69
2022/07/15 10:22:16;;;;;;;4.97;2.25;;;20.20;99.90;;;;;;5115437;28;20255;-69
2022/07/15 10:25:07;;;;;;;7.43;2.00;;;19.90;99.90;;;;;;5117043;28;20167;-69
2022/07/15 10:27:59;;;;;;;4.65;1.80;;;19.80;99.90;;;;;;5117479;28;20164;-69
2022/07/15 10:30:25;;;;;;;5.93;2.00;;;19.50;99.90;;;;;;5117099;28;20192;-69
2022/07/15 10:33:10;;;;;;;5.30;1.98;;;19.30;99.90;;;;;;5116687;28;20168;-69
2022/07/15 10:35:47;;;;;;;6.13;2.20;;;19.30;99.90;;;;;;5117194;28;20209;-69
2022/07/15 10:38:35;;;;;;;7.53;2.13;;;19.50;99.90;;;;;;5116825;28;20160;-69
2022/07/15 10:41:47;;;;;;;6.55;2.22;;;19.80;99.90;;;;;;5115935;28;20672;-69
2022/07/15 10:44:13;;;;;;;2.88;1.70;;;19.90;99.90;;;;;;5115878;28;20180;-69
2022/07/15 10:46:38;;;;;;;7.47;2.28;;;19.70;99.90;;;;;;5116681;28;20172;-69
2022/07/15 10:49:08;;;;;;;4.00;1.80;;;19.50;99.90;;;;;;5116639;28;20544;-69
2022/07/15 10:51:37;;;;;;;4.50;2.00;;;19.50;99.90;;;;;;5116267;28;20244;-69
2022/07/15 10:54:04;;;;;;;4.78;2.03;;;19.60;99.90;;;;;;5116406;28;20183;-69
2022/07/15 10:56:34;;;;;;;3.58;1.70;;;19.50;99.90;;;;;;5115084;28;20185;-69
2022/07/15 10:59:23;;;;;;;3.78;1.80;;;19.60;99.90;;;;;;5115018;28;20168;-69
2022/07/15 11:02:01;;;;;;;5.47;2.13;;;19.70;99.90;;;;;;5114779;28;20633;-69
2022/07/15 11:04:29;;;;;;;5.88;1.90;;;19.80;99.90;;;;;;5116263;28;20184;-69
2022/07/15 11:07:04;;;;;;;3.63;1.70;;;19.80;99.90;;;;;;5116549;28;20173;-69
2022/07/15 11:09:56;;;;;;;4.47;1.70;;;19.80;99.90;;;;;;5116074;28;20199;-69
2022/07/15 11:12:31;;;;;;;4.25;1.85;;;19.80;99.90;;;;;;5114708;28;20196;-69
2022/07/15 11:15:02;;;;;;;3.42;2.10;;;19.70;99.90;;;;;;5116337;28;20192;-69
2022/07/15 11:17:33;;;;;;;3.30;1.80;;;19.70;99.90;;;;;;5115585;28;20268;-69
2022/07/15 11:20:08;;;;;;;3.33;1.60;;;19.50;99.90;;;;;;5114512;28;20203;-69
2022/07/15 11:22:35;;;;;;;2.42;1.73;;;19.30;99.90;;;;;;5116036;28;20183;-69
2022/07/15 11:25:03;;;;;;;4.30;1.95;;;19.30;99.90;;;;;;5114438;28;20578;-69
2022/07/15 11:27:30;;;;;;;4.85;1.70;;;19.30;99.90;;;;;;5115712;28;20179;-69
2022/07/15 11:30:01;;;;;;;3.42;1.80;;;19.30;99.90;;;;;;5115623;28;20193;-69
2022/07/15 11:32:28;;;;;;;3.85;1.80;;;19.30;99.90;;;;;;5113311;28;20192;-69
2022/07/15 11:34:55;;;;;;;5.78;2.00;;;19.30;99.90;;;;;;5114012;28;20211;-69
2022/07/15 11:37:33;;;;;;;6.57;1.90;;;19.40;99.90;;;;;;5115506;28;20172;-69
2022/07/15 11:40:11;;;;;;;4.45;1.80;;;19.60;99.90;;;;;;5114158;28;20291;-69
2022/07/15 11:45:37;;;;;;;4.90;1.77;;;19.70;99.90;;;;;;5115896;28;20171;-69
2022/07/15 11:48:09;;;;;;;5.13;1.90;;;19.80;99.90;;;;;;5115160;28;20260;-69
2022/07/15 11:50:36;;;;;;;7.55;1.90;;;20.00;99.90;;;;;;5115144;28;20204;-69
2022/07/15 11:53:14;;;;;;;4.80;1.77;;;19.90;99.90;;;;;;5115219;27;20176;-69
2022/07/15 11:55:53;;;;;;;4.22;1.88;;;19.70;99.90;;;;;;5115532;28;20156;-69
2022/07/15 11:58:52;;;;;;;4.78;1.80;;;19.70;99.90;;;;;;5113805;28;20644;-69
2022/07/15 12:01:21;;;;;;;5.35;1.75;;;19.70;99.90;;;;;;5107560;27;20208;-69
2022/07/15 12:03:51;;;;;;;4.68;1.90;;;19.70;99.90;;;;;;5115533;28;20164;-69
2022/07/15 12:06:22;;;;;;;4.93;1.85;;;20.00;99.90;;;;;;5115348;28;20183;-69
2022/07/15 12:08:54;;;;;;;4.18;1.63;;;20.40;99.90;;;;;;5115489;28;20164;-68
2022/07/15 12:11:32;;;;;;;3.67;1.40;;;20.50;99.90;;;;;;5113519;28;20211;-68
2022/07/15 12:14:04;;;;;;;2.50;1.40;;;20.60;99.90;;;;;;5115135;28;20156;-68
2022/07/15 12:16:40;;;;;;;3.78;1.60;;;20.60;99.90;;;;;;5115180;28;20153;-68
2022/07/15 12:19:30;;;;;;;7.47;1.60;;;20.90;99.90;;;;;;5113612;28;20227;-68
2022/07/15 12:22:07;;;;;;;4.78;1.65;;;21.40;99.90;;;;;;5109879;28;20188;-68
2022/07/15 12:24:44;;;;;;;4.38;1.60;;;21.80;99.90;;;;;;5115341;28;20196;-68
2022/07/15 12:27:10;;;;;;;3.70;1.40;;;22.30;99.90;;;;;;5114270;28;20172;-70
2022/07/15 12:29:37;;;;;;;7.70;1.67;;;22.30;99.90;;;;;;5115157;28;20221;-70
2022/07/15 12:32:14;;;;;;;3.95;1.58;;;22.10;99.90;;;;;;5115212;28;20199;-70
2022/07/15 12:34:54;;;;;;;2.40;1.38;;;22.00;99.90;;;;;;5115203;28;20204;-70
2022/07/15 12:37:24;;;;;;;5.57;1.38;;;21.60;99.90;;;;;;5115427;28;20180;-70
2022/07/15 12:39:56;;;;;;;8.93;1.73;;;21.40;99.90;;;;;;5115348;28;20211;-70
2022/07/15 12:42:22;;;;;;;4.18;1.65;;;21.50;99.90;;;;;;5114422;28;20169;-70
2022/07/15 12:45:13;;;;;;;2.47;1.40;;;21.90;99.90;;;;;;5114186;28;20172;-70
2022/07/15 12:48:03;;;;;;;3.17;1.33;;;22.50;99.90;;;;;;5112831;28;20710;-70
2022/07/15 12:50:35;;;;;;;5.50;1.48;;;23.10;99.90;;;;;;5113933;28;20201;-70
2022/07/15 12:53:02;;;;;;;2.30;1.10;;;23.10;99.90;;;;;;5112969;28;20300;-70
2022/07/15 12:55:40;;;;;;;2.90;1.38;;;23.10;99.90;;;;;;5113432;28;20161;-70
2022/07/15 12:58:08;;;;;;;3.40;1.42;;;22.80;99.90;;;;;;5114078;28;20172;-70
2022/07/15 13:00:34;;;;;;;6.93;1.80;;;22.20;99.90;;;;;;5112673;28;20279;-70
2022/07/15 13:03:15;;;;;;;2.88;1.58;;;21.90;99.90;;;;;;5112706;28;20611;-70